This is the latest recevied weather packets stored in our database for station/object N3WAX-1. If no packets are shown the sender has not sent any weather packets the latest 10 day(s).
| Time | Temp. | Humidity | Pressure | Rain* | Wind** | Luminosity | Snow |
|---|---|---|---|---|---|---|---|
| 1777937129 | 20° C | 46% | 1010.2 hPa | 0 mm | - | 28 W/m² | - |
| 1777934723 | 20.56° C | 46% | 1010.3 hPa | 0 mm | - | 125 W/m² | - |
| 1777934424 | 20.56° C | 45% | 1010.3 hPa | 0 mm | - | 142 W/m² | - |
| 1777932911 | 21.11° C | 45% | 1010.2 hPa | 0 mm | - | 234 W/m² | - |
| 1777932139 | 21.11° C | 45% | 1010.2 hPa | 0 mm | - | 285 W/m² | - |
| 1777931690 | 21.11° C | 45% | 1010.2 hPa | 0 mm | - | 302 W/m² | - |
| 1777931388 | 21.11° C | 44% | 1010.3 hPa | 0 mm | - | 322 W/m² | - |
| 1777928082 | 21.67° C | 45% | 1010.3 hPa | 0 mm | - | 501 W/m² | - |
| 1777921172 | 20.56° C | 45% | 1011.5 hPa | 0 mm | - | 802 W/m² | - |
| 1777920276 | 20.56° C | 47% | 1011.6 hPa | 0 mm | - | 837 W/m² | - |
| 1777919976 | 20.56° C | 50% | 1011.6 hPa | 0 mm | - | 847 W/m² | - |
| 1777918131 | 20.56° C | 49% | 1011.9 hPa | 0 mm | - | 888 W/m² | - |
| 1777916594 | 20.56° C | 47% | 1012.2 hPa | 0 mm | - | 918 W/m² | - |
| 1777913971 | 19.44° C | 45% | 1012.8 hPa | 0 mm | - | 937 W/m² | - |
| 1777913352 | 19.44° C | 48% | 1013 hPa | 0 mm | - | 939 W/m² | - |
| 1777912904 | 19.44° C | 48% | 1013 hPa | 0 mm | - | 939 W/m² | - |
| 1777912292 | 19.44° C | 48% | 1013.1 hPa | 0 mm | - | 937 W/m² | - |
| 1777911060 | 18.89° C | 47% | 1013.3 hPa | 0 mm | - | 926 W/m² | - |
| 1777910137 | 18.89° C | 49% | 1013.7 hPa | 0 mm | - | 912 W/m² | - |
| 1777909228 | 18.33° C | 46% | 1014 hPa | 0 mm | - | 902 W/m² | - |
| 1777907729 | 18.33° C | 48% | 1013.9 hPa | 0 mm | - | 872 W/m² | - |
| 1777906528 | 17.78° C | 51% | 1014.1 hPa | 0 mm | - | 835 W/m² | - |
| 1777904417 | 16.67° C | 59% | 1014.1 hPa | 0 mm | - | 763 W/m² | - |
| 1777902918 | 15.56° C | 62% | 1014.1 hPa | 0 mm | - | 700 W/m² | - |
| 1777901413 | 15° C | 65% | 1014.5 hPa | 0 mm | - | 631 W/m² | - |
* Rain latest hour (hover to see other rain measurements)
** Current wind speed in m/s (hover to see current wind gust speed)